createdAt,value
2019-03-24T00:02:01.234Z,8.72
2019-03-24T00:04:33.974Z,8.78
2019-03-24T00:07:06.854Z,8.86
2019-03-24T00:09:39.685Z,8.93
2019-03-24T00:12:12.653Z,8.96
2019-03-24T00:14:45.383Z,9.03
2019-03-24T00:17:17.854Z,9.14
2019-03-24T00:19:50.584Z,9.18
2019-03-24T00:22:23.157Z,9.21
2019-03-24T00:24:56.334Z,9.20
2019-03-24T00:27:29.805Z,9.17
2019-03-24T00:30:02.364Z,9.18
2019-03-24T00:32:35.154Z,9.19
2019-03-24T00:35:07.955Z,9.22
2019-03-24T00:37:40.674Z,9.24
2019-03-24T00:40:13.804Z,9.25
2019-03-24T00:42:46.494Z,9.24
2019-03-24T00:45:19.268Z,9.27
2019-03-24T00:47:52.141Z,9.31
2019-03-24T00:50:24.925Z,9.34
2019-03-24T00:52:57.534Z,9.37
2019-03-24T00:55:30.354Z,9.38
2019-03-24T00:58:02.854Z,9.32
2019-03-24T01:00:46.976Z,9.37
2019-03-24T01:03:19.943Z,9.37
2019-03-24T01:05:53.147Z,9.32
2019-03-24T01:08:25.804Z,9.34
2019-03-24T01:10:58.483Z,9.35
2019-03-24T01:13:31.084Z,9.33
2019-03-24T01:16:03.736Z,9.33
2019-03-24T01:18:36.297Z,9.33
2019-03-24T01:21:09.338Z,9.32
2019-03-24T01:23:42.034Z,9.30
2019-03-24T01:26:14.667Z,9.30
2019-03-24T01:28:47.227Z,9.27
2019-03-24T01:31:19.805Z,9.26
2019-03-24T01:33:52.574Z,9.24
2019-03-24T01:36:25.309Z,9.23
2019-03-24T01:38:58.406Z,9.23
2019-03-24T01:41:31.894Z,9.19
2019-03-24T01:44:05.180Z,9.15
2019-03-24T01:46:37.983Z,9.10
2019-03-24T01:49:10.884Z,9.01
2019-03-24T01:51:45.785Z,8.89
2019-03-24T01:54:18.505Z,8.79
2019-03-24T01:56:51.243Z,8.73
2019-03-24T01:59:24.016Z,8.61
2019-03-24T02:01:56.864Z,8.55
2019-03-24T02:04:30.496Z,8.44
2019-03-24T02:07:03.728Z,8.37
2019-03-24T02:09:36.401Z,8.30
2019-03-24T02:12:09.426Z,8.24
2019-03-24T02:14:42.383Z,8.16
2019-03-24T02:17:15.435Z,8.08
2019-03-24T02:19:48.384Z,7.97
2019-03-24T02:22:20.947Z,7.89
2019-03-24T02:24:54.015Z,7.82
2019-03-24T02:27:26.783Z,7.76
2019-03-24T02:29:59.805Z,7.71
2019-03-24T02:32:32.638Z,7.64
2019-03-24T02:35:05.765Z,7.60
2019-03-24T02:37:38.486Z,7.55
2019-03-24T02:40:12.296Z,7.51
2019-03-24T02:42:45.026Z,7.48
2019-03-24T02:45:17.867Z,7.43
2019-03-24T02:47:50.750Z,7.41
2019-03-24T02:50:23.488Z,7.34
2019-03-24T02:52:56.193Z,7.32
2019-03-24T02:55:29.198Z,7.21
2019-03-24T02:58:01.935Z,7.13
2019-03-24T03:00:34.817Z,7.10
2019-03-24T03:03:07.912Z,7.08
2019-03-24T03:05:40.565Z,7.01
2019-03-24T03:08:13.373Z,6.93
2019-03-24T03:10:46.216Z,6.83
2019-03-24T03:13:18.800Z,6.77
2019-03-24T03:15:51.587Z,6.71
2019-03-24T03:18:24.514Z,6.66
2019-03-24T03:20:58.364Z,6.60
2019-03-24T03:23:31.246Z,6.52
2019-03-24T03:26:05.102Z,6.50
2019-03-24T03:28:37.875Z,6.47
2019-03-24T03:31:10.818Z,6.46
2019-03-24T03:33:43.810Z,6.40
2019-03-24T03:36:16.565Z,6.39
2019-03-24T03:38:50.515Z,6.32
2019-03-24T03:41:23.207Z,6.30
2019-03-24T03:43:55.934Z,6.30
2019-03-24T03:46:28.594Z,6.28
2019-03-24T03:49:01.511Z,6.26
2019-03-24T03:51:34.330Z,6.23
2019-03-24T03:54:07.475Z,6.21
2019-03-24T03:56:40.300Z,6.14
2019-03-24T03:59:13.225Z,6.09
2019-03-24T04:01:46.210Z,6.07
2019-03-24T04:04:19.156Z,6.03
2019-03-24T04:06:51.997Z,5.97
2019-03-24T04:09:24.826Z,5.91
2019-03-24T04:11:57.637Z,5.86
2019-03-24T04:14:30.325Z,5.76
2019-03-24T04:17:07.445Z,5.69
2019-03-24T04:19:37.806Z,5.63
2019-03-24T04:22:10.504Z,5.58
2019-03-24T04:24:43.125Z,5.52
2019-03-24T04:27:15.867Z,5.43
2019-03-24T04:29:48.474Z,5.25
2019-03-24T04:32:21.207Z,5.10
2019-03-24T04:34:53.915Z,5.00
2019-03-24T04:37:27.054Z,4.86
2019-03-24T04:39:59.816Z,4.76
2019-03-24T04:42:32.654Z,4.71
2019-03-24T04:45:05.518Z,4.64
2019-03-24T04:47:38.164Z,4.63
2019-03-24T04:50:11.546Z,4.63
2019-03-24T04:52:44.284Z,4.69
2019-03-24T04:55:17.327Z,4.70
2019-03-24T04:57:50.162Z,4.81
2019-03-24T05:00:43.754Z,4.91
2019-03-24T05:03:17.064Z,5.01
2019-03-24T05:05:49.996Z,5.11
2019-03-24T05:08:24.515Z,5.20
2019-03-24T05:10:57.207Z,5.26
2019-03-24T05:13:29.794Z,5.31
2019-03-24T05:16:02.664Z,5.35
2019-03-24T05:18:35.294Z,5.41
2019-03-24T05:21:08.375Z,5.44
2019-03-24T05:23:41.004Z,5.49
2019-03-24T05:26:13.958Z,5.52
2019-03-24T05:28:46.774Z,5.57
2019-03-24T05:31:19.786Z,5.56
2019-03-24T05:33:52.454Z,5.62
2019-03-24T05:36:25.352Z,5.74
2019-03-24T05:38:57.994Z,5.81
2019-03-24T05:41:30.936Z,5.91
2019-03-24T05:44:03.665Z,5.96
2019-03-24T05:46:36.274Z,6.05
2019-03-24T05:49:09.225Z,6.17
2019-03-24T05:51:41.995Z,6.32
2019-03-24T05:54:14.863Z,6.40
2019-03-24T05:56:47.594Z,6.49
2019-03-24T05:59:20.645Z,6.57
2019-03-24T06:01:53.444Z,6.65
2019-03-24T06:04:26.304Z,6.58
2019-03-24T06:06:59.324Z,6.62
2019-03-24T06:09:32.784Z,6.60
2019-03-24T06:12:05.864Z,6.42
2019-03-24T06:14:38.674Z,6.42
2019-03-24T06:17:11.565Z,6.42
2019-03-24T06:19:44.284Z,6.32
2019-03-24T06:22:17.223Z,6.31
2019-03-24T06:24:50.502Z,6.39
2019-03-24T06:27:23.495Z,6.44
2019-03-24T06:29:56.094Z,6.48
2019-03-24T06:32:29.071Z,6.50
2019-03-24T06:35:03.987Z,6.63
2019-03-24T06:37:36.846Z,6.78
2019-03-24T06:40:09.915Z,6.83
2019-03-24T06:42:42.844Z,6.91
2019-03-24T06:45:15.825Z,7.00
2019-03-24T06:47:57.635Z,7.06
2019-03-24T06:50:23.264Z,7.12
2019-03-24T06:52:55.924Z,7.07
2019-03-24T06:55:29.199Z,7.08
2019-03-24T06:58:01.941Z,7.11
2019-03-24T07:00:35.011Z,7.07
2019-03-24T07:03:07.809Z,7.16
2019-03-24T07:05:40.878Z,7.19
2019-03-24T07:08:13.768Z,7.22
2019-03-24T07:10:47.048Z,7.34
2019-03-24T07:13:19.950Z,7.64
2019-03-24T07:15:52.569Z,7.96
2019-03-24T07:18:25.469Z,8.28
2019-03-24T07:20:57.930Z,8.52
2019-03-24T07:23:30.997Z,8.63
2019-03-24T07:26:03.838Z,9.09
2019-03-24T07:28:36.839Z,9.07
2019-03-24T07:31:09.602Z,9.28
2019-03-24T07:33:42.648Z,9.42
2019-03-24T07:36:15.342Z,9.58
2019-03-24T07:38:48.058Z,9.82
2019-03-24T07:41:20.788Z,10.19
2019-03-24T07:43:53.749Z,10.24
2019-03-24T07:46:26.469Z,10.49
2019-03-24T07:48:59.228Z,10.61
2019-03-24T07:51:31.859Z,10.46
2019-03-24T07:54:04.829Z,10.47
2019-03-24T07:56:37.819Z,10.82
2019-03-24T07:59:10.769Z,10.91
2019-03-24T08:01:43.549Z,11.02
2019-03-24T08:04:16.341Z,11.08
2019-03-24T08:06:49.208Z,11.20
2019-03-24T08:09:23.018Z,11.31
2019-03-24T08:11:55.738Z,11.35
2019-03-24T08:14:28.457Z,11.59
2019-03-24T08:17:01.189Z,11.97
2019-03-24T08:19:33.849Z,12.45
2019-03-24T08:22:06.720Z,12.69
2019-03-24T08:24:39.579Z,13.00
2019-03-24T08:27:12.368Z,12.93
2019-03-24T08:29:44.978Z,12.77
2019-03-24T08:32:17.989Z,12.94
2019-03-24T08:34:51.060Z,12.89
2019-03-24T08:37:23.859Z,13.14
2019-03-24T08:39:56.860Z,13.21
2019-03-24T08:42:30.019Z,13.19
2019-03-24T08:45:03.263Z,13.55
2019-03-24T08:47:36.029Z,13.98
2019-03-24T08:50:09.568Z,14.36
2019-03-24T08:52:42.539Z,14.64
2019-03-24T08:55:16.018Z,14.68
2019-03-24T08:57:48.802Z,14.20
2019-03-24T09:00:30.172Z,14.19
2019-03-24T09:02:55.922Z,14.30
2019-03-24T09:05:28.592Z,14.61
2019-03-24T09:08:01.209Z,14.85
2019-03-24T09:10:33.827Z,14.87
2019-03-24T09:13:06.509Z,15.26
2019-03-24T09:15:39.668Z,16.22
2019-03-24T09:18:12.261Z,16.62
2019-03-24T09:20:44.843Z,16.15
2019-03-24T09:23:17.558Z,15.82
2019-03-24T09:25:54.349Z,15.94
2019-03-24T09:28:26.970Z,16.09
2019-03-24T09:30:59.589Z,16.42
2019-03-24T09:33:32.279Z,16.75
2019-03-24T09:36:05.008Z,16.40
2019-03-24T09:38:37.859Z,15.93
2019-03-24T09:41:10.949Z,16.05
2019-03-24T09:43:43.700Z,16.32
2019-03-24T09:46:16.293Z,16.08
2019-03-24T09:48:50.588Z,15.92
2019-03-24T09:51:24.679Z,16.34
2019-03-24T09:53:57.298Z,16.94
2019-03-24T09:56:30.038Z,17.49
2019-03-24T09:59:06.111Z,16.69
2019-03-24T10:01:38.609Z,16.51
2019-03-24T10:04:11.268Z,17.09
2019-03-24T10:06:44.209Z,16.72
2019-03-24T10:09:16.780Z,16.81
2019-03-24T10:11:49.559Z,16.77
2019-03-24T10:14:22.351Z,16.92
2019-03-24T10:16:55.803Z,17.29
2019-03-24T10:19:28.489Z,17.34
2019-03-24T10:22:01.149Z,17.38
2019-03-24T10:24:33.870Z,17.45
2019-03-24T10:27:06.418Z,17.45
2019-03-24T10:29:38.988Z,17.51
2019-03-24T10:32:11.808Z,17.21
2019-03-24T10:34:44.409Z,17.20
2019-03-24T10:37:20.026Z,17.13
2019-03-24T10:39:52.729Z,17.42
2019-03-24T10:42:25.488Z,17.83
2019-03-24T10:44:58.010Z,18.02
2019-03-24T10:47:30.619Z,17.59
2019-03-24T10:50:03.268Z,17.71
2019-03-24T10:52:35.768Z,17.53
2019-03-24T10:55:10.309Z,17.55
2019-03-24T10:57:43.468Z,18.04
2019-03-24T11:00:18.568Z,18.41
2019-03-24T11:02:51.528Z,18.25
2019-03-24T11:05:24.163Z,18.41
2019-03-24T11:07:56.771Z,18.89
2019-03-24T11:10:29.329Z,19.30
2019-03-24T11:13:02.140Z,18.38
2019-03-24T11:15:35.772Z,18.03
2019-03-24T11:18:08.370Z,17.98
2019-03-24T11:20:41.049Z,18.38
2019-03-24T11:23:13.808Z,17.84
2019-03-24T11:25:46.559Z,17.83
2019-03-24T11:28:19.379Z,17.96
2019-03-24T11:30:53.362Z,17.75
2019-03-24T11:33:25.888Z,17.64
2019-03-24T11:35:58.418Z,17.69
2019-03-24T11:38:31.202Z,18.72
2019-03-24T11:41:03.980Z,18.84
2019-03-24T11:43:36.709Z,18.69
2019-03-24T11:46:09.190Z,19.52
2019-03-24T11:48:41.739Z,19.97
2019-03-24T11:51:14.348Z,19.77
2019-03-24T11:53:47.028Z,19.19
2019-03-24T11:56:19.850Z,19.38
2019-03-24T11:58:52.903Z,19.41
2019-03-24T12:01:26.809Z,19.81
2019-03-24T12:03:59.430Z,19.24
2019-03-24T12:06:32.149Z,19.28
2019-03-24T12:09:06.069Z,19.18
2019-03-24T12:11:38.959Z,19.28
2019-03-24T12:14:11.579Z,19.75
2019-03-24T12:16:44.169Z,19.51
2019-03-24T12:19:16.929Z,19.50
2019-03-24T12:21:49.829Z,19.52
2019-03-24T12:24:22.400Z,19.23
2019-03-24T12:26:55.288Z,18.97
2019-03-24T12:29:28.039Z,18.67
2019-03-24T12:32:01.009Z,18.94
2019-03-24T12:34:33.718Z,19.59
2019-03-24T12:37:06.459Z,19.87
2019-03-24T12:39:39.066Z,19.87
2019-03-24T12:42:11.818Z,19.70
2019-03-24T12:44:44.550Z,19.13
2019-03-24T12:47:17.188Z,19.20
2019-03-24T12:49:49.759Z,18.97
2019-03-24T12:52:22.509Z,19.40
2019-03-24T12:54:55.322Z,19.46
2019-03-24T12:57:27.907Z,19.60
2019-03-24T13:00:00.609Z,19.58
2019-03-24T13:02:33.386Z,19.57
2019-03-24T13:05:06.868Z,19.90
2019-03-24T13:07:39.671Z,19.68
2019-03-24T13:10:12.579Z,20.09
2019-03-24T13:12:45.099Z,19.42
2019-03-24T13:15:17.810Z,19.34
2019-03-24T13:17:50.514Z,19.30
2019-03-24T13:20:36.427Z,19.31
2019-03-24T13:22:57.710Z,18.98
2019-03-24T13:25:30.483Z,18.60
2019-03-24T13:28:03.099Z,18.55
2019-03-24T13:30:35.788Z,18.91
2019-03-24T13:33:08.638Z,18.92
2019-03-24T13:35:41.469Z,18.71
2019-03-24T13:38:14.320Z,18.60
2019-03-24T13:40:46.990Z,18.33
2019-03-24T13:43:19.619Z,18.31
2019-03-24T13:45:52.211Z,18.15
2019-03-24T13:48:25.171Z,18.57
2019-03-24T13:50:57.956Z,17.94
2019-03-24T13:53:30.669Z,17.90
2019-03-24T13:56:03.739Z,17.91
2019-03-24T13:58:36.390Z,18.23
2019-03-24T14:01:10.249Z,18.37
2019-03-24T14:03:43.138Z,18.61
2019-03-24T14:06:15.748Z,18.46
2019-03-24T14:08:48.468Z,18.16
2019-03-24T14:11:21.158Z,18.04
2019-03-24T14:13:53.962Z,17.80
2019-03-24T14:16:27.268Z,17.61
2019-03-24T14:18:59.888Z,17.54
2019-03-24T14:21:32.611Z,17.17
2019-03-24T14:24:05.269Z,16.77
2019-03-24T14:26:37.828Z,16.81
2019-03-24T14:29:10.750Z,17.06
2019-03-24T14:31:43.558Z,17.07
2019-03-24T14:34:16.148Z,16.77
2019-03-24T14:36:48.749Z,16.62
2019-03-24T14:39:21.859Z,16.57
2019-03-24T14:41:54.568Z,16.12
2019-03-24T14:44:27.088Z,16.07
2019-03-24T14:46:59.928Z,15.94
2019-03-24T14:49:32.690Z,15.85
2019-03-24T14:52:05.468Z,15.73
2019-03-24T14:54:37.999Z,15.66
2019-03-24T14:57:10.951Z,15.40
2019-03-24T14:59:43.801Z,15.04
2019-03-24T15:02:16.628Z,14.93
2019-03-24T15:04:49.259Z,14.89
2019-03-24T15:07:22.142Z,14.88
2019-03-24T15:09:54.968Z,14.95
2019-03-24T15:12:28.749Z,15.03
2019-03-24T15:15:01.388Z,14.91
2019-03-24T15:17:33.968Z,14.82
2019-03-24T15:20:07.269Z,14.70
2019-03-24T15:22:39.932Z,14.76
2019-03-24T15:25:12.888Z,14.62
2019-03-24T15:27:45.759Z,14.67
2019-03-24T15:30:18.740Z,14.76
2019-03-24T15:32:53.478Z,14.60
2019-03-24T15:35:26.330Z,14.29
2019-03-24T15:38:08.146Z,14.16
2019-03-24T15:40:34.571Z,13.99
2019-03-24T15:43:07.617Z,13.97
2019-03-24T15:45:40.259Z,13.72
2019-03-24T15:48:12.941Z,13.64
2019-03-24T15:50:48.409Z,13.57
2019-03-24T15:53:20.971Z,13.54
2019-03-24T15:55:53.670Z,13.50
2019-03-24T15:58:26.329Z,13.32
2019-03-24T16:00:58.968Z,13.23
2019-03-24T16:03:31.699Z,13.18
2019-03-24T16:06:04.388Z,13.04
2019-03-24T16:08:36.988Z,12.93
2019-03-24T16:11:09.668Z,12.79
2019-03-24T16:13:42.539Z,12.57
2019-03-24T16:16:15.250Z,12.34
2019-03-24T16:18:47.999Z,12.14
2019-03-24T16:21:27.712Z,11.93
2019-03-24T16:23:54.949Z,11.83
2019-03-24T16:26:27.658Z,11.64
2019-03-24T16:29:00.228Z,11.52
2019-03-24T16:31:32.931Z,11.34
2019-03-24T16:34:05.793Z,11.21
2019-03-24T16:36:38.429Z,11.08
2019-03-24T16:39:11.098Z,10.92
2019-03-24T16:41:43.748Z,10.73
2019-03-24T16:44:16.428Z,10.53
2019-03-24T16:46:48.968Z,10.36
2019-03-24T16:49:21.809Z,10.16
2019-03-24T16:51:55.109Z,10.01
2019-03-24T16:54:27.919Z,9.86
2019-03-24T16:57:00.598Z,9.70
2019-03-24T16:59:33.449Z,9.55
2019-03-24T17:02:06.318Z,9.46
2019-03-24T17:04:38.869Z,9.40
2019-03-24T17:07:11.690Z,9.34
2019-03-24T17:09:44.527Z,9.21
2019-03-24T17:12:17.468Z,9.08
2019-03-24T17:14:50.209Z,9.02
2019-03-24T17:17:22.848Z,8.91
2019-03-24T17:19:55.528Z,8.77
2019-03-24T17:22:30.282Z,8.77
2019-03-24T17:25:05.500Z,8.73
2019-03-24T17:27:38.918Z,8.69
2019-03-24T17:30:12.988Z,8.66
2019-03-24T17:32:46.108Z,8.57
2019-03-24T17:35:19.019Z,8.55
2019-03-24T17:37:51.728Z,8.63
2019-03-24T17:40:24.539Z,8.71
2019-03-24T17:42:57.496Z,8.67
2019-03-24T17:45:30.208Z,8.58
2019-03-24T17:48:02.929Z,8.50
2019-03-24T17:50:35.670Z,8.44
2019-03-24T17:53:08.589Z,8.39
2019-03-24T17:55:41.109Z,8.31
2019-03-24T17:58:14.989Z,8.33
2019-03-24T18:00:49.750Z,8.43
2019-03-24T18:03:22.253Z,8.50
2019-03-24T18:05:54.977Z,8.56
2019-03-24T18:08:27.758Z,8.58
2019-03-24T18:11:00.408Z,8.51
2019-03-24T18:13:32.922Z,8.41
2019-03-24T18:16:05.777Z,8.38
2019-03-24T18:18:38.622Z,8.30
2019-03-24T18:21:11.196Z,8.19
2019-03-24T18:23:43.699Z,8.08
2019-03-24T18:26:16.369Z,7.96
2019-03-24T18:28:48.828Z,7.82
2019-03-24T18:31:21.849Z,7.78
2019-03-24T18:33:54.429Z,7.71
2019-03-24T18:36:26.989Z,7.65
2019-03-24T18:38:59.749Z,7.60
2019-03-24T18:41:32.369Z,7.57
2019-03-24T18:44:06.368Z,7.49
2019-03-24T18:46:40.559Z,7.37
2019-03-24T18:49:13.171Z,7.28
2019-03-24T18:51:46.849Z,7.14
2019-03-24T18:54:19.479Z,7.08
2019-03-24T18:56:52.029Z,7.10
2019-03-24T18:59:24.619Z,7.14
2019-03-24T19:01:57.264Z,6.94
2019-03-24T19:04:29.820Z,6.88
2019-03-24T19:07:02.878Z,6.90
2019-03-24T19:09:36.388Z,6.87
2019-03-24T19:12:08.988Z,6.82
2019-03-24T19:14:41.619Z,6.78
2019-03-24T19:17:17.089Z,6.73
2019-03-24T19:19:49.819Z,6.76
2019-03-24T19:22:33.053Z,6.70
2019-03-24T19:24:56.823Z,6.61
2019-03-24T19:27:29.551Z,6.47
2019-03-24T19:30:02.137Z,6.36
2019-03-24T19:32:36.292Z,6.31
2019-03-24T19:35:09.208Z,6.21
2019-03-24T19:37:45.228Z,6.14
2019-03-24T19:40:31.991Z,6.10
2019-03-24T19:43:05.181Z,6.05
2019-03-24T19:45:38.038Z,5.99
2019-03-24T19:48:10.952Z,6.00
2019-03-24T19:50:43.859Z,5.97
2019-03-24T19:53:17.749Z,5.94
2019-03-24T19:55:51.531Z,5.95
2019-03-24T19:58:24.809Z,5.94
2019-03-24T20:00:57.799Z,5.96
2019-03-24T20:03:30.470Z,5.94
2019-03-24T20:06:03.437Z,5.90
2019-03-24T20:08:36.148Z,5.91
2019-03-24T20:11:08.809Z,5.91
2019-03-24T20:13:42.682Z,5.93
2019-03-24T20:16:15.539Z,5.92
2019-03-24T20:18:48.649Z,5.92
2019-03-24T20:21:21.739Z,5.96
2019-03-24T20:23:54.368Z,5.96
2019-03-24T20:26:28.159Z,5.95
2019-03-24T20:29:00.799Z,5.96
2019-03-24T20:31:34.474Z,5.91
2019-03-24T20:34:07.328Z,5.84
2019-03-24T20:36:40.056Z,5.83
2019-03-24T20:39:12.973Z,5.88
2019-03-24T20:41:45.920Z,5.88
2019-03-24T20:44:18.782Z,5.84
2019-03-24T20:46:51.561Z,5.82
2019-03-24T20:49:25.822Z,5.80
2019-03-24T20:51:58.518Z,5.83
2019-03-24T20:54:33.588Z,5.86
2019-03-24T20:57:06.543Z,5.79
2019-03-24T20:59:39.462Z,5.76
2019-03-24T21:02:12.189Z,5.70
2019-03-24T21:04:45.138Z,5.68
2019-03-24T21:07:17.821Z,5.71
2019-03-24T21:09:50.569Z,5.76
2019-03-24T21:12:23.828Z,5.77
2019-03-24T21:14:56.608Z,5.78
2019-03-24T21:17:29.293Z,5.76
2019-03-24T21:20:01.916Z,5.74
2019-03-24T21:22:34.519Z,5.75
2019-03-24T21:25:07.729Z,5.71
2019-03-24T21:27:40.600Z,5.64
2019-03-24T21:30:15.398Z,5.64
2019-03-24T21:32:47.988Z,5.64
2019-03-24T21:35:20.779Z,5.59
2019-03-24T21:37:53.799Z,5.58
2019-03-24T21:40:26.491Z,5.54
2019-03-24T21:42:59.597Z,5.50
2019-03-24T21:45:32.148Z,5.46
2019-03-24T21:48:05.399Z,5.41
2019-03-24T21:50:38.920Z,5.36
2019-03-24T21:53:11.681Z,5.36
2019-03-24T21:55:44.639Z,5.33
2019-03-24T21:58:17.258Z,5.36
2019-03-24T22:00:53.012Z,5.36
2019-03-24T22:03:25.608Z,5.34
2019-03-24T22:05:58.412Z,5.32
2019-03-24T22:08:31.199Z,5.27
2019-03-24T22:11:03.848Z,5.19
2019-03-24T22:13:36.523Z,5.18
2019-03-24T22:16:09.052Z,5.20
2019-03-24T22:18:41.838Z,5.22
2019-03-24T22:21:14.288Z,5.20
2019-03-24T22:23:52.140Z,5.24
2019-03-24T22:26:21.093Z,5.15
2019-03-24T22:28:53.728Z,5.07
2019-03-24T22:31:26.408Z,5.00
2019-03-24T22:33:59.175Z,4.93
2019-03-24T22:36:31.942Z,4.96
2019-03-24T22:39:08.020Z,4.89
2019-03-24T22:41:40.879Z,4.83
2019-03-24T22:44:14.242Z,4.81
2019-03-24T22:46:46.872Z,4.79
2019-03-24T22:49:19.985Z,4.65
2019-03-24T22:51:54.838Z,4.67
2019-03-24T22:54:27.249Z,4.68
2019-03-24T22:56:59.765Z,4.73
2019-03-24T22:59:32.509Z,4.75
2019-03-24T23:02:05.313Z,4.73
2019-03-24T23:04:37.817Z,4.73
2019-03-24T23:07:10.389Z,4.73
2019-03-24T23:09:43.009Z,4.73
2019-03-24T23:12:15.931Z,4.69
2019-03-24T23:14:48.889Z,4.67
2019-03-24T23:17:21.568Z,4.63
2019-03-24T23:19:54.491Z,4.60
2019-03-24T23:22:27.179Z,4.58
2019-03-24T23:24:59.699Z,4.60
2019-03-24T23:27:32.656Z,4.57
2019-03-24T23:30:07.499Z,4.59
2019-03-24T23:32:41.339Z,4.60
2019-03-24T23:35:13.949Z,4.55
2019-03-24T23:37:46.774Z,4.48
2019-03-24T23:40:19.388Z,4.44
2019-03-24T23:42:51.902Z,4.39
2019-03-24T23:45:24.343Z,4.37
2019-03-24T23:47:56.869Z,4.38
2019-03-24T23:50:29.639Z,4.40
2019-03-24T23:53:02.786Z,4.43
2019-03-24T23:55:35.968Z,4.40
2019-03-24T23:58:08.788Z,4.32
